createdAt,value
2017-04-08T00:00:14.444Z,0
2017-04-08T00:01:15.223Z,0
2017-04-08T00:02:15.800Z,0
2017-04-08T00:03:16.373Z,0
2017-04-08T00:04:16.947Z,0
2017-04-08T00:05:17.523Z,0
2017-04-08T00:06:18.100Z,0
2017-04-08T00:07:18.675Z,0
2017-04-08T00:08:19.252Z,0
2017-04-08T00:09:19.825Z,0
2017-04-08T00:10:20.403Z,0
2017-04-08T00:11:20.979Z,0
2017-04-08T00:12:21.571Z,0
2017-04-08T00:13:22.147Z,0
2017-04-08T00:14:22.723Z,0
2017-04-08T00:15:23.301Z,0
2017-04-08T00:16:24.077Z,0
2017-04-08T00:17:24.655Z,0
2017-04-08T00:18:25.230Z,0
2017-04-08T00:19:25.804Z,0
2017-04-08T00:20:26.381Z,0
2017-04-08T00:21:26.956Z,0
2017-04-08T00:22:27.531Z,0
2017-04-08T00:23:28.107Z,0
2017-04-08T00:24:28.684Z,0
2017-04-08T00:25:29.259Z,0
2017-04-08T00:26:29.836Z,0
2017-04-08T00:27:30.412Z,0
2017-04-08T00:28:30.988Z,0
2017-04-08T00:29:31.564Z,0
2017-04-08T00:30:32.144Z,0
2017-04-08T00:31:32.934Z,0
2017-04-08T00:32:33.510Z,0
2017-04-08T00:33:34.085Z,0
2017-04-08T00:34:34.662Z,0
2017-04-08T00:35:35.237Z,0
2017-04-08T00:36:35.813Z,0
2017-04-08T00:37:36.390Z,0
2017-04-08T00:38:36.965Z,0
2017-04-08T00:39:37.558Z,0
2017-04-08T00:40:38.134Z,0
2017-04-08T00:41:38.706Z,0
2017-04-08T00:42:39.288Z,0
2017-04-08T00:43:39.876Z,0
2017-04-08T00:44:40.452Z,0
2017-04-08T00:45:41.027Z,0
2017-04-08T00:46:41.804Z,0
2017-04-08T00:47:42.378Z,0
2017-04-08T00:48:42.975Z,0
2017-04-08T00:49:43.528Z,0
2017-04-08T00:50:44.122Z,0
2017-04-08T00:51:44.697Z,0
2017-04-08T00:52:45.271Z,0
2017-04-08T00:53:45.846Z,0
2017-04-08T00:54:46.439Z,0
2017-04-08T00:55:47.014Z,0
2017-04-08T00:56:47.591Z,0
2017-04-08T00:57:48.167Z,0
2017-04-08T00:58:48.761Z,0
2017-04-08T00:59:49.336Z,0
2017-04-08T01:00:49.916Z,0
2017-04-08T01:01:50.704Z,0
2017-04-08T01:02:51.285Z,0
2017-04-08T01:03:51.857Z,0
2017-04-08T01:04:52.430Z,0
2017-04-08T01:05:53.005Z,0
2017-04-08T01:06:53.584Z,0
2017-04-08T01:07:54.156Z,0
2017-04-08T01:08:54.731Z,0
2017-04-08T01:09:55.307Z,0
2017-04-08T01:10:55.885Z,0
2017-04-08T01:11:56.458Z,0
2017-04-08T01:12:57.033Z,0
2017-04-08T01:13:57.608Z,0
2017-04-08T01:14:58.185Z,0
2017-04-08T01:15:58.760Z,0
2017-04-08T01:16:59.534Z,0
2017-04-08T01:18:00.110Z,0
2017-04-08T01:19:00.684Z,0
2017-04-08T01:20:01.261Z,0
2017-04-08T01:21:01.836Z,0
2017-04-08T01:22:02.411Z,0
2017-04-08T01:23:02.985Z,0
2017-04-08T01:24:03.560Z,0
2017-04-08T01:25:04.137Z,0
2017-04-08T01:26:04.713Z,0
2017-04-08T01:27:05.287Z,0
2017-04-08T01:28:05.863Z,0
2017-04-08T01:29:06.438Z,0
2017-04-08T01:30:07.014Z,0
2017-04-08T01:31:07.588Z,0
2017-04-08T01:32:08.368Z,0
2017-04-08T01:33:08.940Z,0
2017-04-08T01:34:09.513Z,0
2017-04-08T01:35:10.090Z,0
2017-04-08T01:36:10.665Z,0
2017-04-08T01:37:11.240Z,0
2017-04-08T01:38:11.816Z,0
2017-04-08T01:39:12.411Z,0
2017-04-08T01:40:12.984Z,0
2017-04-08T01:41:13.560Z,0
2017-04-08T01:42:14.136Z,0
2017-04-08T01:43:14.710Z,0
2017-04-08T01:44:15.286Z,0
2017-04-08T01:45:15.877Z,0
2017-04-08T01:46:16.452Z,0
2017-04-08T01:47:17.227Z,0
2017-04-08T01:48:17.802Z,0
2017-04-08T01:49:18.379Z,0
2017-04-08T01:50:18.952Z,0
2017-04-08T01:51:19.525Z,0
2017-04-08T01:52:20.101Z,0
2017-04-08T01:53:20.694Z,0
2017-04-08T01:54:21.267Z,0
2017-04-08T01:55:21.859Z,0
2017-04-08T01:56:22.438Z,0
2017-04-08T01:57:23.012Z,0
2017-04-08T01:58:23.586Z,0
2017-04-08T01:59:24.162Z,0
2017-04-08T02:00:24.738Z,0
2017-04-08T02:01:25.312Z,0
2017-04-08T02:02:26.087Z,0
2017-04-08T02:03:26.662Z,0
2017-04-08T02:04:27.238Z,0
2017-04-08T02:05:27.812Z,0
2017-04-08T02:06:28.392Z,0
2017-04-08T02:07:28.966Z,0
2017-04-08T02:08:29.558Z,0
2017-04-08T02:09:30.133Z,0
2017-04-08T02:10:30.708Z,0
2017-04-08T02:11:31.284Z,0
2017-04-08T02:12:31.858Z,0
2017-04-08T02:13:32.433Z,0
2017-04-08T02:14:33.010Z,0
2017-04-08T02:15:33.584Z,0
2017-04-08T02:16:34.159Z,0
2017-04-08T02:17:34.936Z,0
2017-04-08T02:18:35.510Z,0
2017-04-08T02:19:36.089Z,0
2017-04-08T02:20:36.661Z,0
2017-04-08T02:21:37.255Z,0
2017-04-08T02:22:37.830Z,0
2017-04-08T02:23:38.405Z,0
2017-04-08T02:24:38.981Z,0
2017-04-08T02:25:39.557Z,0
2017-04-08T02:26:40.132Z,0
2017-04-08T02:27:40.707Z,0
2017-04-08T02:28:41.284Z,0
2017-04-08T02:29:41.858Z,0
2017-04-08T02:30:42.432Z,0
2017-04-08T02:31:43.009Z,0
2017-04-08T02:32:43.784Z,0
2017-04-08T02:33:44.359Z,0
2017-04-08T02:34:44.938Z,0
2017-04-08T02:35:45.510Z,0
2017-04-08T02:36:46.085Z,0
2017-04-08T02:37:46.658Z,0
2017-04-08T02:38:47.235Z,0
2017-04-08T02:39:47.808Z,0
2017-04-08T02:40:48.401Z,0
2017-04-08T02:41:48.988Z,0
2017-04-08T02:42:49.566Z,0
2017-04-08T02:43:50.141Z,0
2017-04-08T02:44:50.717Z,0
2017-04-08T02:45:51.293Z,0
2017-04-08T02:46:51.871Z,0
2017-04-08T02:47:52.641Z,0
2017-04-08T02:48:53.215Z,0
2017-04-08T02:49:53.791Z,0
2017-04-08T02:50:54.367Z,0
2017-04-08T02:51:54.942Z,0
2017-04-08T02:52:55.515Z,0
2017-04-08T02:53:56.091Z,0
2017-04-08T02:54:56.664Z,0
2017-04-08T02:55:57.242Z,0
2017-04-08T02:56:57.815Z,0
2017-04-08T02:57:58.391Z,0
2017-04-08T02:58:58.967Z,0
2017-04-08T02:59:59.541Z,0
2017-04-08T03:01:00.116Z,0
2017-04-08T03:02:00.690Z,0
2017-04-08T03:03:01.484Z,0
2017-04-08T03:04:02.057Z,0
2017-04-08T03:05:02.648Z,0
2017-04-08T03:06:03.228Z,0
2017-04-08T03:07:03.799Z,0
2017-04-08T03:08:04.374Z,0
2017-04-08T03:09:04.948Z,0
2017-04-08T03:10:05.524Z,0
2017-04-08T03:11:06.099Z,0
2017-04-08T03:12:06.674Z,0
2017-04-08T03:13:07.247Z,0
2017-04-08T03:14:07.840Z,0
2017-04-08T03:15:08.416Z,0
2017-04-08T03:16:08.989Z,0
2017-04-08T03:17:09.565Z,0
2017-04-08T03:18:10.339Z,0
2017-04-08T03:19:10.915Z,0
2017-04-08T03:20:11.489Z,0
2017-04-08T03:21:12.064Z,0
2017-04-08T03:22:12.658Z,0
2017-04-08T03:23:13.233Z,0
2017-04-08T03:24:13.808Z,0
2017-04-08T03:25:14.382Z,0
2017-04-08T03:26:14.961Z,0
2017-04-08T03:27:15.533Z,0
2017-04-08T03:28:16.106Z,0
2017-04-08T03:29:16.698Z,0
2017-04-08T03:30:17.274Z,0
2017-04-08T03:31:17.848Z,0
2017-04-08T03:32:18.440Z,0
2017-04-08T03:33:19.217Z,0
2017-04-08T03:34:19.790Z,0
2017-04-08T03:35:20.366Z,0
2017-04-08T03:36:20.940Z,0
2017-04-08T03:37:21.516Z,0
2017-04-08T03:38:22.092Z,0
2017-04-08T03:39:22.685Z,0
2017-04-08T03:40:23.259Z,0
2017-04-08T03:41:23.836Z,0
2017-04-08T03:42:24.411Z,0
2017-04-08T03:43:24.985Z,0
2017-04-08T03:44:25.560Z,0
2017-04-08T03:45:26.136Z,0
2017-04-08T03:46:26.730Z,0
2017-04-08T03:47:27.304Z,0
2017-04-08T03:48:27.879Z,0
2017-04-08T03:49:28.457Z,0
2017-04-08T03:50:29.028Z,0
2017-04-08T03:51:29.603Z,0
2017-04-08T03:52:30.177Z,0
2017-04-08T03:53:30.758Z,0
2017-04-08T03:54:31.347Z,0
2017-04-08T03:55:31.922Z,0
2017-04-08T03:56:32.497Z,0
2017-04-08T03:57:33.073Z,0
2017-04-08T03:58:33.649Z,0
2017-04-08T03:59:34.224Z,0
2017-04-08T04:00:34.801Z,0
2017-04-08T04:01:35.377Z,0
2017-04-08T04:02:35.950Z,0
2017-04-08T04:03:36.524Z,0
2017-04-08T04:04:37.102Z,0
2017-04-08T04:05:37.693Z,0
2017-04-08T04:06:38.267Z,0
2017-04-08T04:07:38.844Z,0
2017-04-08T04:08:39.418Z,0
2017-04-08T04:09:39.992Z,0
2017-04-08T04:10:40.569Z,0
2017-04-08T04:11:41.146Z,0
2017-04-08T04:12:41.719Z,0
2017-04-08T04:13:42.296Z,0
2017-04-08T04:14:42.870Z,0
2017-04-08T04:15:43.444Z,0
2017-04-08T04:16:44.023Z,0
2017-04-08T04:17:44.598Z,0
2017-04-08T04:18:45.171Z,0
2017-04-08T04:19:45.746Z,0
2017-04-08T04:20:46.321Z,0
2017-04-08T04:21:46.898Z,0
2017-04-08T04:22:47.473Z,0
2017-04-08T04:23:48.066Z,0
2017-04-08T04:24:48.642Z,4
2017-04-08T04:25:49.216Z,4
2017-04-08T04:26:49.792Z,4
2017-04-08T04:27:50.368Z,0
2017-04-08T04:28:51.144Z,4
2017-04-08T04:29:51.718Z,4
2017-04-08T04:30:52.295Z,4
2017-04-08T04:31:52.869Z,4
2017-04-08T04:32:53.444Z,4
2017-04-08T04:33:54.021Z,12
2017-04-08T04:34:54.595Z,12
2017-04-08T04:35:55.171Z,12
2017-04-08T04:36:55.750Z,16
2017-04-08T04:37:56.324Z,16
2017-04-08T04:38:56.901Z,16
2017-04-08T04:39:57.477Z,24
2017-04-08T04:40:58.053Z,24
2017-04-08T04:41:58.646Z,24
2017-04-08T04:42:59.222Z,28
2017-04-08T04:44:00.000Z,32
2017-04-08T04:45:00.593Z,36
2017-04-08T04:46:01.169Z,36
2017-04-08T04:47:01.746Z,44
2017-04-08T04:48:02.331Z,48
2017-04-08T04:49:02.897Z,52
2017-04-08T04:50:03.474Z,60
2017-04-08T04:51:04.050Z,64
2017-04-08T04:52:04.627Z,72
2017-04-08T04:53:05.203Z,72
2017-04-08T04:54:05.979Z,84
2017-04-08T04:55:06.556Z,92
2017-04-08T04:56:07.132Z,104
2017-04-08T04:57:07.708Z,120
2017-04-08T04:58:08.286Z,128
2017-04-08T04:59:08.863Z,140
2017-04-08T05:00:09.439Z,152
2017-04-08T05:01:10.036Z,168
2017-04-08T05:02:10.613Z,176
2017-04-08T05:03:11.189Z,192
2017-04-08T05:04:11.767Z,204
2017-04-08T05:05:12.345Z,216
2017-04-08T05:06:12.924Z,232
2017-04-08T05:07:13.500Z,244
2017-04-08T05:08:14.075Z,248
2017-04-08T05:09:14.859Z,260
2017-04-08T05:10:15.431Z,268
2017-04-08T05:11:16.013Z,292
2017-04-08T05:12:16.587Z,312
2017-04-08T05:13:17.167Z,332
2017-04-08T05:14:17.745Z,360
2017-04-08T05:15:18.325Z,384
2017-04-08T05:16:18.903Z,400
2017-04-08T05:17:19.480Z,412
2017-04-08T05:18:20.059Z,428
2017-04-08T05:19:20.637Z,452
2017-04-08T05:20:21.215Z,480
2017-04-08T05:21:21.795Z,500
2017-04-08T05:22:22.374Z,508
2017-04-08T05:23:22.952Z,504
2017-04-08T05:24:23.730Z,512
2017-04-08T05:25:24.305Z,532
2017-04-08T05:26:24.884Z,560
2017-04-08T05:27:25.463Z,580
2017-04-08T05:28:26.039Z,596
2017-04-08T05:29:26.618Z,616
2017-04-08T05:30:27.195Z,628
2017-04-08T05:31:27.775Z,656
2017-04-08T05:32:28.358Z,684
2017-04-08T05:33:28.950Z,716
2017-04-08T05:34:29.528Z,748
2017-04-08T05:35:30.105Z,776
2017-04-08T05:36:30.685Z,800
2017-04-08T05:37:31.265Z,816
2017-04-08T05:38:31.842Z,840
2017-04-08T05:39:32.621Z,868
2017-04-08T05:40:33.199Z,908
2017-04-08T05:41:33.778Z,944
2017-04-08T05:42:34.358Z,960
2017-04-08T05:43:34.937Z,964
2017-04-08T05:44:35.533Z,980
2017-04-08T05:45:36.113Z,1016
2017-04-08T05:46:36.692Z,1076
2017-04-08T05:47:37.272Z,1128
2017-04-08T05:48:37.851Z,1176
2017-04-08T05:49:38.430Z,1212
2017-04-08T05:50:39.009Z,1252
2017-04-08T05:51:39.608Z,1272
2017-04-08T05:52:40.185Z,1276
2017-04-08T05:53:40.763Z,1284
2017-04-08T05:54:41.344Z,1336
2017-04-08T05:55:41.940Z,1400
2017-04-08T05:56:42.520Z,1476
2017-04-08T05:57:43.101Z,1540
2017-04-08T05:58:43.681Z,1588
2017-04-08T05:59:44.258Z,1628
2017-04-08T06:00:44.837Z,1668
2017-04-08T06:01:45.418Z,1696
2017-04-08T06:02:45.996Z,1736
2017-04-08T06:03:46.575Z,1800
2017-04-08T06:04:47.354Z,1836
2017-04-08T06:05:47.936Z,1844
2017-04-08T06:06:48.511Z,1868
2017-04-08T06:07:49.091Z,1928
2017-04-08T06:08:49.668Z,2012
2017-04-08T06:09:50.276Z,2072
2017-04-08T06:10:50.826Z,2112
2017-04-08T06:11:51.412Z,2176
2017-04-08T06:12:51.987Z,2236
2017-04-08T06:13:52.564Z,2248
2017-04-08T06:14:53.145Z,2244
2017-04-08T06:15:53.729Z,2268
2017-04-08T06:16:54.313Z,2332
2017-04-08T06:17:54.884Z,2416
2017-04-08T06:18:55.467Z,2488
2017-04-08T06:19:56.046Z,2536
2017-04-08T06:20:56.624Z,2560
2017-04-08T06:21:57.204Z,2612
2017-04-08T06:22:57.784Z,2640
2017-04-08T06:23:58.381Z,2644
2017-04-08T06:24:58.962Z,2652
2017-04-08T06:25:59.540Z,2696
2017-04-08T06:27:00.121Z,2796
2017-04-08T06:28:00.700Z,2900
2017-04-08T06:29:01.281Z,2988
2017-04-08T06:30:02.061Z,3060
2017-04-08T06:31:02.643Z,3116
2017-04-08T06:32:03.239Z,3184
2017-04-08T06:33:03.820Z,3224
2017-04-08T06:34:04.401Z,3256
2017-04-08T06:35:04.981Z,3280
2017-04-08T06:36:05.561Z,3324
2017-04-08T06:37:06.145Z,3356
2017-04-08T06:38:06.726Z,3328
2017-04-08T06:39:07.306Z,3288
2017-04-08T06:40:07.886Z,3312
2017-04-08T06:41:08.467Z,3384
2017-04-08T06:42:09.064Z,3560
2017-04-08T06:43:09.644Z,3584
2017-04-08T06:44:10.227Z,3544
2017-04-08T06:45:11.004Z,3624
2017-04-08T06:46:11.586Z,3600
2017-04-08T06:47:12.184Z,3528
2017-04-08T06:48:12.766Z,3492
2017-04-08T06:49:13.346Z,3524
2017-04-08T06:50:13.927Z,3596
2017-04-08T06:51:14.512Z,3640
2017-04-08T06:52:15.091Z,3640
2017-04-08T06:53:15.670Z,3700
2017-04-08T06:54:16.251Z,3860
2017-04-08T06:55:16.830Z,4000
2017-04-08T06:56:17.412Z,4116
2017-04-08T06:57:17.993Z,4136
2017-04-08T06:58:18.591Z,4196
2017-04-08T06:59:19.172Z,4264
2017-04-08T07:00:19.952Z,4388
2017-04-08T07:01:20.535Z,4492
2017-04-08T07:02:21.115Z,4584
2017-04-08T07:03:21.697Z,4600
2017-04-08T07:04:22.279Z,4596
2017-04-08T07:05:22.860Z,4708
2017-04-08T07:06:23.459Z,4736
2017-04-08T07:07:24.042Z,4736
2017-04-08T07:08:24.620Z,4748
2017-04-08T07:09:25.202Z,4760
2017-04-08T07:10:25.783Z,4724
2017-04-08T07:11:26.364Z,4704
2017-04-08T07:12:26.945Z,4732
2017-04-08T07:13:27.526Z,4748
2017-04-08T07:14:28.107Z,4720
2017-04-08T07:15:28.890Z,4664
2017-04-08T07:16:29.470Z,4680
2017-04-08T07:17:30.051Z,4808
2017-04-08T07:18:30.633Z,4968
2017-04-08T07:19:31.213Z,5140
2017-04-08T07:20:31.795Z,5276
2017-04-08T07:21:32.376Z,5304
2017-04-08T07:22:32.958Z,5276
2017-04-08T07:23:33.539Z,5324
2017-04-08T07:24:34.121Z,5424
2017-04-08T07:25:34.701Z,5488
2017-04-08T07:26:35.284Z,5464
2017-04-08T07:27:35.865Z,5428
2017-04-08T07:28:36.445Z,5452
2017-04-08T07:29:37.027Z,5480
2017-04-08T07:30:37.809Z,5520
2017-04-08T07:31:38.394Z,5572
2017-04-08T07:32:38.973Z,5680
2017-04-08T07:33:39.553Z,5828
2017-04-08T07:34:40.132Z,5936
2017-04-08T07:35:40.715Z,5960
2017-04-08T07:36:41.296Z,5988
2017-04-08T07:37:41.878Z,5996
2017-04-08T07:38:42.458Z,6080
2017-04-08T07:39:43.040Z,6176
2017-04-08T07:40:43.623Z,6208
2017-04-08T07:41:44.205Z,6192
2017-04-08T07:42:44.785Z,6228
2017-04-08T07:43:45.365Z,6340
2017-04-08T07:44:45.965Z,6488
2017-04-08T07:45:46.748Z,6236
2017-04-08T07:46:47.328Z,6236
2017-04-08T07:47:47.910Z,6244
2017-04-08T07:48:48.491Z,6240
2017-04-08T07:49:49.090Z,6216
2017-04-08T07:50:49.671Z,6092
2017-04-08T07:51:50.254Z,5992
2017-04-08T07:52:50.851Z,6000
2017-04-08T07:53:51.435Z,6044
2017-04-08T07:54:52.016Z,6032
2017-04-08T07:55:52.598Z,6024
2017-04-08T07:56:53.186Z,6088
2017-04-08T07:57:53.763Z,6228
2017-04-08T07:58:54.343Z,6380
2017-04-08T07:59:54.925Z,6528
2017-04-08T08:00:55.507Z,6632
2017-04-08T08:01:56.091Z,6724
2017-04-08T08:02:56.671Z,6856
2017-04-08T08:03:57.269Z,7000
2017-04-08T08:04:57.851Z,7088
2017-04-08T08:05:58.433Z,7132
2017-04-08T08:06:59.015Z,7132
2017-04-08T08:07:59.600Z,7088
2017-04-08T08:09:00.197Z,7032
2017-04-08T08:10:00.780Z,7060
2017-04-08T08:11:01.365Z,7140
2017-04-08T08:12:01.943Z,7200
2017-04-08T08:13:02.525Z,7256
2017-04-08T08:14:03.109Z,7356
2017-04-08T08:15:03.691Z,7452
2017-04-08T08:16:04.473Z,7548
2017-04-08T08:17:05.056Z,7624
2017-04-08T08:18:05.638Z,7688
2017-04-08T08:19:06.222Z,7684
2017-04-08T08:20:06.803Z,7528
2017-04-08T08:21:07.388Z,7400
2017-04-08T08:22:07.970Z,7352
2017-04-08T08:23:08.552Z,7344
2017-04-08T08:24:09.133Z,7516
2017-04-08T08:25:09.718Z,7672
2017-04-08T08:26:10.299Z,7792
2017-04-08T08:27:10.881Z,7832
2017-04-08T08:28:11.462Z,7816
2017-04-08T08:29:12.046Z,7860
2017-04-08T08:30:12.629Z,7916
2017-04-08T08:31:13.412Z,7908
2017-04-08T08:32:13.995Z,7820
2017-04-08T08:33:14.577Z,7776
2017-04-08T08:34:15.160Z,7900
2017-04-08T08:35:15.742Z,8036
2017-04-08T08:36:16.327Z,8124
2017-04-08T08:37:16.912Z,8164
2017-04-08T08:38:17.512Z,8140
2017-04-08T08:39:18.098Z,8268
2017-04-08T08:40:18.679Z,8464
2017-04-08T08:41:19.263Z,8612
2017-04-08T08:42:19.846Z,8648
2017-04-08T08:43:20.430Z,8676
2017-04-08T08:44:21.012Z,8768
2017-04-08T08:45:21.595Z,8884
2017-04-08T08:46:22.378Z,8940
2017-04-08T08:47:22.958Z,8956
2017-04-08T08:48:23.540Z,8952
2017-04-08T08:49:24.126Z,8976
2017-04-08T08:50:24.709Z,9028
2017-04-08T08:51:25.292Z,9076
2017-04-08T08:52:25.876Z,9092
2017-04-08T08:53:26.458Z,9068
2017-04-08T08:54:27.041Z,9100
2017-04-08T08:55:27.657Z,9176
2017-04-08T08:56:28.207Z,9244
2017-04-08T08:57:28.788Z,9252
2017-04-08T08:58:29.373Z,9236
2017-04-08T08:59:29.956Z,9228
2017-04-08T09:00:30.538Z,9244
2017-04-08T09:01:31.120Z,9312
2017-04-08T09:02:31.705Z,9380
2017-04-08T09:03:32.288Z,9408
2017-04-08T09:04:32.872Z,9384
2017-04-08T09:05:33.453Z,9356
2017-04-08T09:06:34.039Z,9316
2017-04-08T09:07:34.621Z,9172
2017-04-08T09:08:35.203Z,8964
2017-04-08T09:09:35.787Z,9140
2017-04-08T09:10:36.372Z,9504
2017-04-08T09:11:36.954Z,9676
2017-04-08T09:12:37.537Z,9784
2017-04-08T09:13:38.121Z,9900
2017-04-08T09:14:38.706Z,9940
2017-04-08T09:15:39.288Z,9924
2017-04-08T09:16:39.871Z,9884
2017-04-08T09:17:40.454Z,9824
2017-04-08T09:18:41.039Z,9544
2017-04-08T09:19:41.641Z,10116
2017-04-08T09:20:42.226Z,10400
2017-04-08T09:21:43.012Z,10472
2017-04-08T09:22:43.596Z,10532
2017-04-08T09:23:44.182Z,10556
2017-04-08T09:24:44.769Z,10544
2017-04-08T09:25:45.353Z,10568
2017-04-08T09:26:45.938Z,10612
2017-04-08T09:27:46.523Z,10644
2017-04-08T09:28:47.109Z,10700
2017-04-08T09:29:47.711Z,10776
2017-04-08T09:30:48.297Z,10820
2017-04-08T09:31:49.083Z,10896
2017-04-08T09:32:49.667Z,10988
2017-04-08T09:33:50.253Z,11056
2017-04-08T09:34:50.840Z,11016
2017-04-08T09:35:51.423Z,10976
2017-04-08T09:36:52.008Z,10976
2017-04-08T09:37:52.592Z,11000
2017-04-08T09:38:53.178Z,11000
2017-04-08T09:39:53.761Z,11048
2017-04-08T09:40:54.345Z,11116
2017-04-08T09:41:54.929Z,11184
2017-04-08T09:42:55.514Z,11272
2017-04-08T09:43:56.101Z,11340
2017-04-08T09:44:56.685Z,11380
2017-04-08T09:45:57.272Z,11424
2017-04-08T09:46:58.056Z,11484
2017-04-08T09:47:58.641Z,11516
2017-04-08T09:48:59.227Z,11532
2017-04-08T09:49:59.812Z,11520
2017-04-08T09:51:00.400Z,11480
2017-04-08T09:52:00.986Z,11404
2017-04-08T09:53:01.570Z,11320
2017-04-08T09:54:02.157Z,11276
2017-04-08T09:55:02.743Z,11288
2017-04-08T09:56:03.333Z,11368
2017-04-08T09:57:03.916Z,11384
2017-04-08T09:58:04.500Z,11324
2017-04-08T09:59:05.085Z,11224
2017-04-08T10:00:05.670Z,11248
2017-04-08T10:01:06.257Z,11352
2017-04-08T10:02:07.042Z,11364
2017-04-08T10:03:07.625Z,11396
2017-04-08T10:04:08.211Z,11496
2017-04-08T10:05:08.796Z,11556
2017-04-08T10:06:09.381Z,11616
2017-04-08T10:07:09.966Z,11688
2017-04-08T10:08:10.561Z,11720
2017-04-08T10:09:11.139Z,11792
2017-04-08T10:10:11.724Z,11884
2017-04-08T10:11:12.309Z,11940
2017-04-08T10:12:12.893Z,12048
2017-04-08T10:13:13.479Z,12184
2017-04-08T10:14:14.064Z,12248
2017-04-08T10:15:14.648Z,12328
2017-04-08T10:16:15.234Z,12424
2017-04-08T10:17:16.037Z,12412
2017-04-08T10:18:16.623Z,12496
2017-04-08T10:19:17.209Z,12524
2017-04-08T10:20:17.794Z,12520
2017-04-08T10:21:18.379Z,12528
2017-04-08T10:22:18.966Z,12588
2017-04-08T10:23:19.552Z,12640
2017-04-08T10:24:20.137Z,12652
2017-04-08T10:25:20.722Z,12636
2017-04-08T10:26:21.308Z,12652
2017-04-08T10:27:21.897Z,12712
2017-04-08T10:28:22.481Z,12776
2017-04-08T10:29:23.067Z,12860
2017-04-08T10:30:23.672Z,12888
2017-04-08T10:31:24.256Z,12920
2017-04-08T10:32:25.043Z,13008
2017-04-08T10:33:25.629Z,13040
2017-04-08T10:34:26.213Z,13080
2017-04-08T10:35:26.799Z,13116
2017-04-08T10:36:27.384Z,13156
2017-04-08T10:37:27.971Z,13232
2017-04-08T10:38:28.555Z,13288
2017-04-08T10:39:29.140Z,13300
2017-04-08T10:40:29.727Z,13260
2017-04-08T10:41:30.331Z,13184
2017-04-08T10:42:30.917Z,13156
2017-04-08T10:43:31.508Z,13156
2017-04-08T10:44:32.091Z,13132
2017-04-08T10:45:32.676Z,13080
2017-04-08T10:46:33.263Z,13112
2017-04-08T10:47:33.849Z,13128
2017-04-08T10:48:34.436Z,13180
2017-04-08T10:49:35.023Z,13288
2017-04-08T10:50:35.610Z,13284
2017-04-08T10:51:36.196Z,13272
2017-04-08T10:52:36.798Z,13276
2017-04-08T10:53:37.388Z,11812
2017-04-08T10:54:37.970Z,11740
2017-04-08T10:55:38.557Z,11796
2017-04-08T10:56:39.143Z,11940
2017-04-08T10:57:39.928Z,12164
2017-04-08T10:58:40.530Z,12200
2017-04-08T10:59:41.121Z,12032
2017-04-08T11:00:41.704Z,11960
2017-04-08T11:01:42.288Z,11864
2017-04-08T11:02:42.874Z,11800
2017-04-08T11:03:43.476Z,11724
2017-04-08T11:04:44.063Z,11600
2017-04-08T11:05:44.648Z,11528
2017-04-08T11:06:45.236Z,11404
2017-04-08T11:07:45.821Z,11304
2017-04-08T11:08:46.406Z,11332
2017-04-08T11:09:46.993Z,11288
2017-04-08T11:10:47.585Z,11300
2017-04-08T11:11:48.172Z,11168
2017-04-08T11:12:48.952Z,10848
2017-04-08T11:13:49.540Z,10336
2017-04-08T11:14:50.123Z,9816
2017-04-08T11:15:50.708Z,9388
2017-04-08T11:16:51.310Z,9136
2017-04-08T11:17:51.894Z,9140
2017-04-08T11:18:52.479Z,9372
2017-04-08T11:19:53.066Z,9660
2017-04-08T11:20:53.652Z,9912
2017-04-08T11:21:54.236Z,10120
2017-04-08T11:22:55.021Z,10268
2017-04-08T11:23:55.607Z,10396
2017-04-08T11:24:56.191Z,10512
2017-04-08T11:25:56.778Z,10824
2017-04-08T11:26:57.363Z,11116
2017-04-08T11:27:57.950Z,11152
2017-04-08T11:28:58.534Z,11108
2017-04-08T11:29:59.120Z,10952
2017-04-08T11:30:59.704Z,10868
2017-04-08T11:32:00.291Z,10776
2017-04-08T11:33:00.877Z,10652
2017-04-08T11:34:01.462Z,10452
2017-04-08T11:35:02.049Z,10196
2017-04-08T11:36:02.635Z,10040
2017-04-08T11:37:03.222Z,10036
2017-04-08T11:38:03.807Z,10036
2017-04-08T11:39:04.391Z,9996
2017-04-08T11:40:04.977Z,10000
2017-04-08T11:41:05.564Z,10004
2017-04-08T11:42:06.154Z,9936
2017-04-08T11:43:06.734Z,9952
2017-04-08T11:44:07.335Z,10100
2017-04-08T11:45:07.919Z,10228
2017-04-08T11:46:08.503Z,10296
2017-04-08T11:47:09.090Z,10184
2017-04-08T11:48:09.676Z,9900
2017-04-08T11:49:10.277Z,9680
2017-04-08T11:50:10.878Z,9748
2017-04-08T11:51:11.464Z,9920
2017-04-08T11:52:12.050Z,10148
2017-04-08T11:53:12.636Z,11660
2017-04-08T11:54:13.221Z,12124
2017-04-08T11:55:13.809Z,12464
2017-04-08T11:56:14.395Z,12568
2017-04-08T11:57:14.981Z,12372
2017-04-08T11:58:15.784Z,12116
2017-04-08T11:59:16.371Z,12056
2017-04-08T12:00:16.958Z,12304
2017-04-08T12:01:17.550Z,12312
2017-04-08T12:02:18.133Z,12452
2017-04-08T12:03:18.717Z,12484
2017-04-08T12:04:19.304Z,12476
2017-04-08T12:05:19.906Z,12404
2017-04-08T12:06:20.493Z,12324
2017-04-08T12:07:21.081Z,12168
2017-04-08T12:08:21.670Z,12088
2017-04-08T12:09:22.274Z,12016
2017-04-08T12:10:22.861Z,11872
2017-04-08T12:11:23.448Z,11800
2017-04-08T12:12:24.032Z,11764
2017-04-08T12:13:24.818Z,11848
2017-04-08T12:14:25.403Z,11968
2017-04-08T12:15:25.989Z,12008
2017-04-08T12:16:26.575Z,11932
2017-04-08T12:17:27.162Z,11780
2017-04-08T12:18:27.746Z,11676
2017-04-08T12:19:28.332Z,11648
2017-04-08T12:20:28.918Z,11832
2017-04-08T12:21:29.505Z,12072
2017-04-08T12:22:30.094Z,12320
2017-04-08T12:23:30.680Z,12588
2017-04-08T12:24:31.267Z,12780
2017-04-08T12:25:31.852Z,12808
2017-04-08T12:26:32.437Z,12748
2017-04-08T12:27:33.026Z,12724
2017-04-08T12:28:33.810Z,12632
2017-04-08T12:29:34.398Z,12432
2017-04-08T12:30:34.985Z,12340
2017-04-08T12:31:35.569Z,12308
2017-04-08T12:32:36.156Z,12336
2017-04-08T12:33:36.740Z,12380
2017-04-08T12:34:37.342Z,12252
2017-04-08T12:35:37.929Z,12180
2017-04-08T12:36:38.517Z,12124
2017-04-08T12:37:39.104Z,11864
2017-04-08T12:38:39.690Z,11596
2017-04-08T12:39:40.277Z,11424
2017-04-08T12:40:40.869Z,11256
2017-04-08T12:41:41.451Z,11164
2017-04-08T12:42:42.037Z,11148
2017-04-08T12:43:42.823Z,11280
2017-04-08T12:44:43.411Z,11424
2017-04-08T12:45:44.001Z,11636
2017-04-08T12:46:44.584Z,11776
2017-04-08T12:47:45.170Z,11992
2017-04-08T12:48:45.757Z,12112
2017-04-08T12:49:46.345Z,12116
2017-04-08T12:50:46.931Z,12116
2017-04-08T12:51:47.516Z,12128
2017-04-08T12:52:48.101Z,12204
2017-04-08T12:53:48.689Z,12344
2017-04-08T12:54:49.292Z,12564
2017-04-08T12:55:49.893Z,12796
2017-04-08T12:56:50.480Z,12968
2017-04-08T12:57:51.068Z,13360
2017-04-08T12:58:51.853Z,13708
2017-04-08T12:59:52.439Z,14072
2017-04-08T13:00:53.026Z,14200
2017-04-08T13:01:53.612Z,13984
2017-04-08T13:02:54.199Z,13536
2017-04-08T13:03:54.788Z,13028
2017-04-08T13:04:55.373Z,12616
2017-04-08T13:05:55.961Z,12320
2017-04-08T13:06:56.545Z,12180
2017-04-08T13:07:57.132Z,12116
2017-04-08T13:08:57.920Z,12100
2017-04-08T13:09:58.504Z,12160
2017-04-08T13:10:59.091Z,12304
2017-04-08T13:11:59.677Z,12604
2017-04-08T13:13:00.265Z,12904
2017-04-08T13:14:00.867Z,13084
2017-04-08T13:15:01.454Z,13252
2017-04-08T13:16:02.042Z,13396
2017-04-08T13:17:02.625Z,13552
2017-04-08T13:18:03.212Z,13628
2017-04-08T13:19:03.800Z,13656
2017-04-08T13:20:04.389Z,13632
2017-04-08T13:21:04.979Z,13508
2017-04-08T13:22:05.562Z,13192
2017-04-08T13:23:06.147Z,12724
2017-04-08T13:24:06.734Z,12148
2017-04-08T13:25:07.322Z,11644
2017-04-08T13:26:07.908Z,11440
2017-04-08T13:27:08.494Z,11488
2017-04-08T13:28:09.081Z,11604
2017-04-08T13:29:09.668Z,11692
2017-04-08T13:30:10.255Z,11884
2017-04-08T13:31:10.840Z,12104
2017-04-08T13:32:11.427Z,12268
2017-04-08T13:33:12.017Z,12560
2017-04-08T13:34:12.801Z,12976
2017-04-08T13:35:13.389Z,13300
2017-04-08T13:36:13.975Z,13376
2017-04-08T13:37:14.563Z,13116
2017-04-08T13:38:15.148Z,12632
2017-04-08T13:39:15.732Z,12200
2017-04-08T13:40:16.319Z,11828
2017-04-08T13:41:16.907Z,11728
2017-04-08T13:42:17.511Z,11764
2017-04-08T13:43:18.098Z,11876
2017-04-08T13:44:18.686Z,11516
2017-04-08T13:45:19.273Z,11320
2017-04-08T13:46:19.877Z,11276
2017-04-08T13:47:20.463Z,11384
2017-04-08T13:48:21.055Z,11460